Terminal Aerodrome Forecast
Issued by NWS

Current Version | Previous Version | Text Only | Print | Product List | Glossary Off
Versions: 1 2 3 4 5 6 7 8 9 10 11 12 13 14 15 16 17 18 19 20 21 22 23 24 25 26 27 28 29 30 31 32

493
FTUS41 KRNK 190755 AAB
TAFLWB
TAF AMD
KLWB 190755Z 1908/2006 35008G18KT P6SM OVC025
      TEMPO 1908/1910 4SM -SHRA
     FM191100 28015G30KT P6SM VCSH OVC030
     FM191900 31012G22KT P6SM OVC040
     FM200000 32010G18KT P6SM BKN050=

USA.gov is the U.S. government's official web portal to all federal, state and local government web resources and services.